createdAt,value
2022-09-10T00:00:34.419Z,16.33
2022-09-10T00:03:03.571Z,16.36
2022-09-10T00:05:31.479Z,16.62
2022-09-10T00:07:59.355Z,16.70
2022-09-10T00:10:27.393Z,16.01
2022-09-10T00:12:55.808Z,16.36
2022-09-10T00:15:23.577Z,16.35
2022-09-10T00:17:52.641Z,16.54
2022-09-10T00:20:20.487Z,16.39
2022-09-10T00:22:48.508Z,15.99
2022-09-10T00:25:16.359Z,16.02
2022-09-10T00:27:44.091Z,16.28
2022-09-10T00:30:12.845Z,15.97
2022-09-10T00:32:40.550Z,16.05
2022-09-10T00:35:10.120Z,16.08
2022-09-10T00:37:37.826Z,16.30
2022-09-10T00:40:06.364Z,16.33
2022-09-10T00:42:34.124Z,16.37
2022-09-10T00:45:04.923Z,16.41
2022-09-10T00:47:36.357Z,16.32
2022-09-10T00:50:08.150Z,16.01
2022-09-10T00:52:39.984Z,16.22
2022-09-10T00:55:09.669Z,16.30
2022-09-10T00:57:38.406Z,16.09
2022-09-10T01:00:09.865Z,16.18
2022-09-10T01:02:37.653Z,16.18
2022-09-10T01:05:07.092Z,16.05
2022-09-10T01:07:34.835Z,16.22
2022-09-10T01:10:07.743Z,16.17
2022-09-10T01:13:03.012Z,16.19
2022-09-10T01:15:40.411Z,16.47
2022-09-10T01:18:25.517Z,15.70
2022-09-10T01:21:03.199Z,15.37
2022-09-10T01:24:14.989Z,15.76
2022-09-10T01:27:02.740Z,15.90
2022-09-10T01:29:39.081Z,15.68
2022-09-10T01:32:15.373Z,15.64
2022-09-10T01:34:49.947Z,15.47
2022-09-10T01:37:23.823Z,15.74
2022-09-10T01:39:53.687Z,16.05
2022-09-10T01:42:21.452Z,15.94
2022-09-10T01:44:52.767Z,15.99
2022-09-10T01:47:35.560Z,15.88
2022-09-10T01:50:22.808Z,15.47
2022-09-10T01:53:07.223Z,15.39
2022-09-10T01:55:43.701Z,15.39
2022-09-10T01:58:21.285Z,15.20
2022-09-10T02:00:56.923Z,15.59
2022-09-10T02:03:27.965Z,15.63
2022-09-10T02:05:58.222Z,15.80
2022-09-10T02:08:31.172Z,15.64
2022-09-10T02:11:01.449Z,15.44
2022-09-10T02:13:30.729Z,15.79
2022-09-10T02:16:00.441Z,15.60
2022-09-10T02:18:28.558Z,15.57
2022-09-10T02:20:58.089Z,15.70
2022-09-10T02:23:31.487Z,15.32
2022-09-10T02:25:59.492Z,15.66
2022-09-10T02:28:27.399Z,15.79
2022-09-10T02:30:55.118Z,15.76
2022-09-10T02:33:24.206Z,15.59
2022-09-10T02:35:53.674Z,15.95
2022-09-10T02:38:21.480Z,15.96
2022-09-10T02:40:50.055Z,15.65
2022-09-10T02:43:18.313Z,15.95
2022-09-10T02:45:46.028Z,15.92
2022-09-10T02:48:13.848Z,15.73
2022-09-10T02:50:45.936Z,16.03
2022-09-10T02:53:13.939Z,15.83
2022-09-10T02:55:42.310Z,15.76
2022-09-10T02:58:09.984Z,15.54
2022-09-10T03:00:38.375Z,15.38
2022-09-10T03:03:06.193Z,15.47
2022-09-10T03:05:34.191Z,15.46
2022-09-10T03:08:03.788Z,15.52
2022-09-10T03:10:31.851Z,15.71
2022-09-10T03:13:00.078Z,15.50
2022-09-10T03:15:28.310Z,15.50
2022-09-10T03:17:56.074Z,15.84
2022-09-10T03:20:24.003Z,15.54
2022-09-10T03:22:52.427Z,15.62
2022-09-10T03:25:22.723Z,15.76
2022-09-10T03:27:50.524Z,15.50
2022-09-10T03:30:18.442Z,15.35
2022-09-10T03:32:46.164Z,15.18
2022-09-10T03:35:16.860Z,15.29
2022-09-10T03:37:44.729Z,15.55
2022-09-10T03:40:12.660Z,15.66
2022-09-10T03:42:42.382Z,15.47
2022-09-10T03:45:11.976Z,15.48
2022-09-10T03:47:40.484Z,15.60
2022-09-10T03:50:08.732Z,15.91
2022-09-10T03:52:36.555Z,16.04
2022-09-10T03:55:04.396Z,15.73
2022-09-10T03:57:32.238Z,15.73
2022-09-10T04:00:01.429Z,15.67
2022-09-10T04:02:29.228Z,15.69
2022-09-10T04:04:56.948Z,15.76
2022-09-10T04:07:24.640Z,15.81
2022-09-10T04:09:52.358Z,15.79
2022-09-10T04:12:20.074Z,15.94
2022-09-10T04:14:48.231Z,15.55
2022-09-10T04:17:18.090Z,15.41
2022-09-10T04:19:46.075Z,15.61
2022-09-10T04:22:13.768Z,15.79
2022-09-10T04:24:42.251Z,15.85
2022-09-10T04:27:09.987Z,15.77
2022-09-10T04:29:38.091Z,15.39
2022-09-10T04:32:06.025Z,15.63
2022-09-10T04:34:35.257Z,15.53
2022-09-10T04:37:02.959Z,15.45
2022-09-10T04:39:30.980Z,15.60
2022-09-10T04:41:58.702Z,15.39
2022-09-10T04:44:27.852Z,15.38
2022-09-10T04:46:55.577Z,15.27
2022-09-10T04:49:23.284Z,15.02
2022-09-10T04:51:52.637Z,15.86
2022-09-10T04:54:20.329Z,16.09
2022-09-10T04:56:48.300Z,16.05
2022-09-10T04:59:16.030Z,16.26
2022-09-10T05:01:43.719Z,15.84
2022-09-10T05:04:11.448Z,16.18
2022-09-10T05:06:39.240Z,16.00
2022-09-10T05:09:08.329Z,16.22
2022-09-10T05:11:36.723Z,16.35
2022-09-10T05:14:05.540Z,15.99
2022-09-10T05:16:33.554Z,16.15
2022-09-10T05:19:01.532Z,16.32
2022-09-10T05:21:31.181Z,16.35
2022-09-10T05:23:59.212Z,16.00
2022-09-10T05:26:28.713Z,16.22
2022-09-10T05:28:59.742Z,16.63
2022-09-10T05:31:27.810Z,15.84
2022-09-10T05:33:56.135Z,15.62
2022-09-10T05:36:24.300Z,16.29
2022-09-10T05:38:52.035Z,16.69
2022-09-10T05:41:19.749Z,16.80
2022-09-10T05:43:48.836Z,16.44
2022-09-10T05:46:17.433Z,15.87
2022-09-10T05:48:45.324Z,16.15
2022-09-10T05:51:13.502Z,16.35
2022-09-10T05:53:41.655Z,16.75
2022-09-10T05:56:09.431Z,16.72
2022-09-10T05:58:37.296Z,16.73
2022-09-10T06:01:06.622Z,17.18
2022-09-10T06:03:34.486Z,16.48
2022-09-10T06:06:02.193Z,17.05
2022-09-10T06:08:31.347Z,17.12
2022-09-10T06:11:00.658Z,17.53
2022-09-10T06:13:28.577Z,17.73
2022-09-10T06:15:56.292Z,18.24
2022-09-10T06:18:25.566Z,18.07
2022-09-10T06:21:03.080Z,18.28
2022-09-10T06:23:31.363Z,18.44
2022-09-10T06:26:04.353Z,18.38
2022-09-10T06:28:33.266Z,18.11
2022-09-10T06:31:01.174Z,19.06
2022-09-10T06:33:30.326Z,18.48
2022-09-10T06:35:59.658Z,18.37
2022-09-10T06:38:30.067Z,18.42
2022-09-10T06:41:01.157Z,18.89
2022-09-10T06:43:32.788Z,18.35
2022-09-10T06:46:00.529Z,18.50
2022-09-10T06:48:47.905Z,18.50
2022-09-10T06:51:18.029Z,19.27
2022-09-10T06:53:47.129Z,18.78
2022-09-10T06:56:16.094Z,18.73
2022-09-10T06:58:43.812Z,19.13
2022-09-10T07:01:14.763Z,19.09
2022-09-10T07:03:43.797Z,19.04
2022-09-10T07:06:13.320Z,18.83
2022-09-10T07:08:42.762Z,18.71
2022-09-10T07:11:13.637Z,19.31
2022-09-10T07:13:43.012Z,19.20
2022-09-10T07:16:10.854Z,19.40
2022-09-10T07:18:38.941Z,19.68
2022-09-10T07:21:11.227Z,19.57
2022-09-10T07:23:40.063Z,19.94
2022-09-10T07:26:11.939Z,20.29
2022-09-10T07:28:42.445Z,19.74
2022-09-10T07:31:15.756Z,19.86
2022-09-10T07:33:43.684Z,19.80
2022-09-10T07:36:12.318Z,19.99
2022-09-10T07:38:40.858Z,20.08
2022-09-10T07:41:12.365Z,19.60
2022-09-10T07:43:40.604Z,20.31
2022-09-10T07:46:09.486Z,20.58
2022-09-10T07:48:37.660Z,20.46
2022-09-10T07:51:06.918Z,20.94
2022-09-10T07:53:34.825Z,20.73
2022-09-10T07:56:04.725Z,21.63
2022-09-10T07:58:35.982Z,20.76
2022-09-10T08:01:09.359Z,21.22
2022-09-10T08:03:41.197Z,20.97
2022-09-10T08:06:10.447Z,21.07
2022-09-10T08:08:39.904Z,21.31
2022-09-10T08:11:11.969Z,21.70
2022-09-10T08:13:42.059Z,21.50
2022-09-10T08:16:12.211Z,21.48
2022-09-10T08:18:40.610Z,21.52
2022-09-10T08:21:09.179Z,21.46
2022-09-10T08:23:37.370Z,21.41
2022-09-10T08:26:09.122Z,21.64
2022-09-10T08:28:37.745Z,21.85
2022-09-10T08:31:08.801Z,21.68
2022-09-10T08:33:38.194Z,21.43
2022-09-10T08:36:07.858Z,21.82
2022-09-10T08:38:38.675Z,21.91
2022-09-10T08:41:21.889Z,22.05
2022-09-10T08:43:55.571Z,21.94
2022-09-10T08:46:27.759Z,22.63
2022-09-10T08:49:05.122Z,22.64
2022-09-10T08:51:40.351Z,22.51
2022-09-10T08:54:14.503Z,22.39
2022-09-10T08:56:42.475Z,22.55
2022-09-10T08:59:21.502Z,22.89
2022-09-10T09:01:56.388Z,22.96
2022-09-10T09:04:34.078Z,23.21
2022-09-10T09:07:05.886Z,23.83
2022-09-10T09:09:33.750Z,24.39
2022-09-10T09:12:07.271Z,24.82
2022-09-10T09:14:53.435Z,25.46
2022-09-10T09:17:59.833Z,24.66
2022-09-10T09:20:40.871Z,24.65
2022-09-10T09:23:20.745Z,26.97
2022-09-10T09:25:51.230Z,25.67
2022-09-10T09:28:35.003Z,26.37
2022-09-10T09:31:09.687Z,26.08
2022-09-10T09:33:40.017Z,26.18
2022-09-10T09:36:08.567Z,26.16
2022-09-10T09:38:41.274Z,26.33
2022-09-10T09:41:18.589Z,26.52
2022-09-10T09:43:54.253Z,27.30
2022-09-10T09:46:24.290Z,26.38
2022-09-10T09:48:57.748Z,26.67
2022-09-10T09:51:26.950Z,25.37
2022-09-10T09:54:25.762Z,25.73
2022-09-10T09:56:50.872Z,26.45
2022-09-10T09:59:28.721Z,27.49
2022-09-10T10:02:00.381Z,28.03
2022-09-10T10:04:31.246Z,27.55
2022-09-10T10:07:01.002Z,26.95
2022-09-10T10:09:30.344Z,27.40
2022-09-10T10:11:59.410Z,27.61
2022-09-10T10:14:39.326Z,28.20
2022-09-10T10:17:29.677Z,27.46
2022-09-10T10:20:01.534Z,27.26
2022-09-10T10:22:31.966Z,27.96
2022-09-10T10:25:01.205Z,27.40
2022-09-10T10:27:32.858Z,25.69
2022-09-10T10:30:04.635Z,26.84
2022-09-10T10:32:44.625Z,26.84
2022-09-10T10:35:44.191Z,27.77
2022-09-10T10:38:31.130Z,26.79
2022-09-10T10:41:31.792Z,27.53
2022-09-10T10:44:12.698Z,26.89
2022-09-10T10:46:49.662Z,27.21
2022-09-10T10:49:28.446Z,26.87
2022-09-10T10:52:07.790Z,28.28
2022-09-10T10:54:53.810Z,25.89
2022-09-10T10:57:31.142Z,27.14
2022-09-10T11:00:04.873Z,27.35
2022-09-10T11:02:41.656Z,28.03
2022-09-10T11:05:21.787Z,26.80
2022-09-10T11:07:50.947Z,27.18
2022-09-10T11:10:24.212Z,27.28
2022-09-10T11:12:56.518Z,26.41
2022-09-10T11:15:31.072Z,26.98
2022-09-10T11:18:08.412Z,27.50
2022-09-10T11:20:42.479Z,27.89
2022-09-10T11:23:21.092Z,26.91
2022-09-10T11:25:57.175Z,25.99
2022-09-10T11:28:29.887Z,26.82
2022-09-10T11:31:04.021Z,26.12
2022-09-10T11:33:37.552Z,27.20
2022-09-10T11:36:11.932Z,27.28
2022-09-10T11:38:52.942Z,25.79
2022-09-10T11:41:24.071Z,24.98
2022-09-10T11:43:58.198Z,25.06
2022-09-10T11:46:32.273Z,26.19
2022-09-10T11:49:04.542Z,26.35
2022-09-10T11:51:34.767Z,27.18
2022-09-10T11:54:07.154Z,25.24
2022-09-10T11:56:53.480Z,25.85
2022-09-10T11:59:37.348Z,25.82
2022-09-10T12:02:27.349Z,25.79
2022-09-10T12:05:04.201Z,26.25
2022-09-10T12:07:46.689Z,27.16
2022-09-10T12:10:23.142Z,26.76
2022-09-10T12:12:51.150Z,26.29
2022-09-10T12:15:21.686Z,25.90
2022-09-10T12:17:54.580Z,24.82
2022-09-10T12:20:29.614Z,24.85
2022-09-10T12:22:57.924Z,25.93
2022-09-10T12:25:33.838Z,25.57
2022-09-10T12:28:05.208Z,27.11
2022-09-10T12:31:02.817Z,26.73
2022-09-10T12:33:54.187Z,26.52
2022-09-10T12:36:55.026Z,25.68
2022-09-10T12:39:25.070Z,26.55
2022-09-10T12:41:59.683Z,24.58
2022-09-10T12:44:45.119Z,25.29
2022-09-10T12:47:52.458Z,24.70
2022-09-10T12:50:28.499Z,22.67
2022-09-10T12:53:14.902Z,24.30
2022-09-10T12:55:54.548Z,25.56
2022-09-10T12:58:31.776Z,25.87
2022-09-10T13:01:17.689Z,22.85
2022-09-10T13:03:54.685Z,23.11
2022-09-10T13:06:35.837Z,23.42
2022-09-10T13:09:16.834Z,23.31
2022-09-10T13:11:48.999Z,23.57
2022-09-10T13:14:23.093Z,25.05
2022-09-10T13:16:50.921Z,25.70
2022-09-10T13:19:51.166Z,25.26
2022-09-10T13:23:01.399Z,25.54
2022-09-10T13:25:36.829Z,24.54
2022-09-10T13:28:43.514Z,22.55
2022-09-10T13:31:19.506Z,24.29
2022-09-10T13:34:01.758Z,23.20
2022-09-10T13:36:36.182Z,23.57
2022-09-10T13:39:19.233Z,23.11
2022-09-10T13:42:08.849Z,23.22
2022-09-10T13:44:56.110Z,22.77
2022-09-10T13:47:30.165Z,22.79
2022-09-10T13:50:02.280Z,22.67
2022-09-10T13:52:33.510Z,22.68
2022-09-10T13:55:02.833Z,21.55
2022-09-10T13:57:34.924Z,22.16
2022-09-10T14:00:08.217Z,22.22
2022-09-10T14:02:46.243Z,22.59
2022-09-10T14:05:33.150Z,22.11
2022-09-10T14:08:06.252Z,22.95
2022-09-10T14:10:48.632Z,22.18
2022-09-10T14:13:20.057Z,21.13
2022-09-10T14:15:48.243Z,21.58
2022-09-10T14:18:17.700Z,21.99
2022-09-10T14:20:45.710Z,21.65
2022-09-10T14:23:15.968Z,21.67
2022-09-10T14:25:45.934Z,21.49
2022-09-10T14:28:26.739Z,20.91
2022-09-10T14:31:29.899Z,20.88
2022-09-10T14:34:00.205Z,21.56
2022-09-10T14:36:35.133Z,21.91
2022-09-10T14:39:06.891Z,21.61
2022-09-10T14:41:36.703Z,21.71
2022-09-10T14:44:31.653Z,21.78
2022-09-10T14:47:01.438Z,21.50
2022-09-10T14:49:33.701Z,21.59
2022-09-10T14:52:02.523Z,21.55
2022-09-10T14:54:32.708Z,21.55
2022-09-10T14:57:03.925Z,21.53
2022-09-10T14:59:33.255Z,21.26
2022-09-10T15:02:02.302Z,21.14
2022-09-10T15:04:31.705Z,20.89
2022-09-10T15:07:02.680Z,20.95
2022-09-10T15:09:31.319Z,21.30
2022-09-10T15:12:05.074Z,20.88
2022-09-10T15:14:34.113Z,20.79
2022-09-10T15:17:01.959Z,21.17
2022-09-10T15:19:31.603Z,21.15
2022-09-10T15:21:59.670Z,21.62
2022-09-10T15:24:28.317Z,21.58
2022-09-10T15:26:57.412Z,20.99
2022-09-10T15:29:26.015Z,21.47
2022-09-10T15:31:53.745Z,21.29
2022-09-10T15:34:21.425Z,21.46
2022-09-10T15:36:50.513Z,21.30
2022-09-10T15:39:18.208Z,21.32
2022-09-10T15:41:45.966Z,21.37
2022-09-10T15:44:14.034Z,21.43
2022-09-10T15:46:45.292Z,20.94
2022-09-10T15:49:13.235Z,21.01
2022-09-10T15:51:42.218Z,21.02
2022-09-10T15:54:12.260Z,21.56
2022-09-10T15:56:40.775Z,21.61
2022-09-10T15:59:10.269Z,21.58
2022-09-10T16:01:39.400Z,22.19
2022-09-10T16:04:07.434Z,21.36
2022-09-10T16:06:37.691Z,21.43
2022-09-10T16:09:09.018Z,20.79
2022-09-10T16:11:40.178Z,21.68
2022-09-10T16:14:09.916Z,22.22
2022-09-10T16:16:38.165Z,22.22
2022-09-10T16:19:06.660Z,22.21
2022-09-10T16:21:36.313Z,22.92
2022-09-10T16:24:05.704Z,22.82
2022-09-10T16:26:35.607Z,22.99
2022-09-10T16:29:07.268Z,22.68
2022-09-10T16:31:36.908Z,22.92
2022-09-10T16:34:06.847Z,23.22
2022-09-10T16:36:37.718Z,23.14
2022-09-10T16:39:11.975Z,23.71
2022-09-10T16:41:40.535Z,22.88
2022-09-10T16:44:11.015Z,22.85
2022-09-10T16:46:39.411Z,23.32
2022-09-10T16:49:08.894Z,23.28
2022-09-10T16:51:36.858Z,22.87
2022-09-10T16:54:06.722Z,22.87
2022-09-10T16:56:36.522Z,22.91
2022-09-10T16:59:07.433Z,22.15
2022-09-10T17:01:37.027Z,22.17
2022-09-10T17:04:07.551Z,21.41
2022-09-10T17:06:36.787Z,20.20
2022-09-10T17:09:04.761Z,20.23
2022-09-10T17:11:33.256Z,19.63
2022-09-10T17:14:02.583Z,19.78
2022-09-10T17:16:32.653Z,19.80
2022-09-10T17:19:04.052Z,19.74
2022-09-10T17:21:34.390Z,19.30
2022-09-10T17:24:03.217Z,19.76
2022-09-10T17:26:31.570Z,19.54
2022-09-10T17:29:00.446Z,19.40
2022-09-10T17:31:29.608Z,18.61
2022-09-10T17:33:58.079Z,18.73
2022-09-10T17:36:28.161Z,18.59
2022-09-10T17:38:58.994Z,19.08
2022-09-10T17:41:27.443Z,19.05
2022-09-10T17:43:55.587Z,18.77
2022-09-10T17:46:24.044Z,18.89
2022-09-10T17:48:53.570Z,19.22
2022-09-10T17:51:22.943Z,19.24
2022-09-10T17:53:52.223Z,19.72
2022-09-10T17:56:20.528Z,19.39
2022-09-10T17:58:49.150Z,19.48
2022-09-10T18:01:23.519Z,19.30
2022-09-10T18:03:51.890Z,19.67
2022-09-10T18:06:21.371Z,19.81
2022-09-10T18:08:50.854Z,19.68
2022-09-10T18:11:22.235Z,19.50
2022-09-10T18:13:51.710Z,19.18
2022-09-10T18:16:22.314Z,19.23
2022-09-10T18:18:53.802Z,19.32
2022-09-10T18:21:25.164Z,19.88
2022-09-10T18:23:54.481Z,19.67
2022-09-10T18:26:26.326Z,19.47
2022-09-10T18:28:56.538Z,19.39
2022-09-10T18:31:25.287Z,19.64
2022-09-10T18:33:53.675Z,19.50
2022-09-10T18:36:21.724Z,19.75
2022-09-10T18:38:49.646Z,19.75
2022-09-10T18:41:19.485Z,19.66
2022-09-10T18:43:49.561Z,19.77
2022-09-10T18:46:20.034Z,19.75
2022-09-10T18:48:48.898Z,19.87
2022-09-10T18:51:18.605Z,19.52
2022-09-10T18:53:47.069Z,19.58
2022-09-10T18:56:16.727Z,19.72
2022-09-10T18:58:51.032Z,19.80
2022-09-10T19:01:19.922Z,19.81
2022-09-10T19:03:49.039Z,19.99
2022-09-10T19:06:19.244Z,20.38
2022-09-10T19:08:48.780Z,19.98
2022-09-10T19:11:18.899Z,20.11
2022-09-10T19:13:51.615Z,20.48
2022-09-10T19:16:20.723Z,20.44
2022-09-10T19:18:50.951Z,19.33
2022-09-10T19:21:20.139Z,19.74
2022-09-10T19:23:48.599Z,19.81
2022-09-10T19:26:17.354Z,19.85
2022-09-10T19:28:46.352Z,19.91
2022-09-10T19:31:17.655Z,20.00
2022-09-10T19:33:45.389Z,20.07
2022-09-10T19:36:15.328Z,20.00
2022-09-10T19:38:43.323Z,20.17
2022-09-10T19:41:13.329Z,20.46
2022-09-10T19:43:42.272Z,20.21
2022-09-10T19:46:11.568Z,20.01
2022-09-10T19:48:41.110Z,19.43
2022-09-10T19:51:10.610Z,19.44
2022-09-10T19:53:40.059Z,19.66
2022-09-10T19:56:09.400Z,19.57
2022-09-10T19:58:38.183Z,19.64
2022-09-10T20:01:10.103Z,19.19
2022-09-10T20:03:38.185Z,19.14
2022-09-10T20:06:11.300Z,19.41
2022-09-10T20:08:40.504Z,19.60
2022-09-10T20:11:09.869Z,19.72
2022-09-10T20:13:38.025Z,19.20
2022-09-10T20:16:07.663Z,19.32
2022-09-10T20:18:37.101Z,19.32
2022-09-10T20:21:15.501Z,19.42
2022-09-10T20:23:44.822Z,19.45
2022-09-10T20:26:14.299Z,19.48
2022-09-10T20:28:42.606Z,19.82
2022-09-10T20:31:13.017Z,19.48
2022-09-10T20:33:42.526Z,19.36
2022-09-10T20:36:15.015Z,19.09
2022-09-10T20:38:43.459Z,19.33
2022-09-10T20:41:12.051Z,18.86
2022-09-10T20:43:39.946Z,19.38
2022-09-10T20:46:14.099Z,19.30
2022-09-10T20:48:45.856Z,19.37
2022-09-10T20:51:18.777Z,19.39
2022-09-10T20:53:46.611Z,18.86
2022-09-10T20:56:17.798Z,18.71
2022-09-10T20:58:46.842Z,18.29
2022-09-10T21:01:16.467Z,18.61
2022-09-10T21:03:44.904Z,19.08
2022-09-10T21:06:13.972Z,18.98
2022-09-10T21:08:43.640Z,18.96
2022-09-10T21:11:13.301Z,18.82
2022-09-10T21:13:44.517Z,18.98
2022-09-10T21:16:15.069Z,18.69
2022-09-10T21:18:43.307Z,18.63
2022-09-10T21:21:12.565Z,18.68
2022-09-10T21:23:46.723Z,18.80
2022-09-10T21:26:16.406Z,18.88
2022-09-10T21:28:45.177Z,19.13
2022-09-10T21:31:14.017Z,19.09
2022-09-10T21:33:43.478Z,18.88
2022-09-10T21:36:13.068Z,19.01
2022-09-10T21:38:41.341Z,18.75
2022-09-10T21:41:14.485Z,18.86
2022-09-10T21:43:44.578Z,18.86
2022-09-10T21:46:14.138Z,18.72
2022-09-10T21:48:42.922Z,19.01
2022-09-10T21:51:13.993Z,19.07
2022-09-10T21:53:42.621Z,18.79
2022-09-10T21:56:14.001Z,19.22
2022-09-10T21:58:43.378Z,19.09
2022-09-10T22:01:13.071Z,18.61
2022-09-10T22:03:41.337Z,18.36
2022-09-10T22:06:11.162Z,18.32
2022-09-10T22:08:43.557Z,18.51
2022-09-10T22:11:15.324Z,18.58
2022-09-10T22:13:43.210Z,17.90
2022-09-10T22:16:12.493Z,18.21
2022-09-10T22:18:41.490Z,17.88
2022-09-10T22:21:09.861Z,17.54
2022-09-10T22:23:39.802Z,17.53
2022-09-10T22:26:10.458Z,17.52
2022-09-10T22:28:39.856Z,17.83
2022-09-10T22:31:10.120Z,17.72
2022-09-10T22:33:39.124Z,17.94
2022-09-10T22:36:11.800Z,18.28
2022-09-10T22:38:40.171Z,18.05
2022-09-10T22:41:10.263Z,18.15
2022-09-10T22:43:39.567Z,18.01
2022-09-10T22:46:08.281Z,18.39
2022-09-10T22:48:37.670Z,18.67
2022-09-10T22:51:06.626Z,18.30
2022-09-10T22:53:34.367Z,17.92
2022-09-10T22:56:03.264Z,18.22
2022-09-10T22:58:32.945Z,18.21
2022-09-10T23:01:05.439Z,18.41
2022-09-10T23:03:33.257Z,18.23
2022-09-10T23:06:06.195Z,18.27
2022-09-10T23:08:34.887Z,18.03
2022-09-10T23:11:15.246Z,18.47
2022-09-10T23:13:44.387Z,18.22
2022-09-10T23:16:19.527Z,17.84
2022-09-10T23:18:50.548Z,17.79
2022-09-10T23:21:19.112Z,18.12
2022-09-10T23:23:48.101Z,18.00
2022-09-10T23:26:17.236Z,18.20
2022-09-10T23:28:45.206Z,18.36
2022-09-10T23:31:17.395Z,17.63
2022-09-10T23:33:48.669Z,17.73
2022-09-10T23:36:16.409Z,17.97
2022-09-10T23:38:44.488Z,17.92
2022-09-10T23:41:13.247Z,18.32
2022-09-10T23:43:41.544Z,18.23
2022-09-10T23:46:10.237Z,18.06
2022-09-10T23:48:42.449Z,18.06
2022-09-10T23:51:13.636Z,17.95
2022-09-10T23:53:42.417Z,18.43
2022-09-10T23:56:10.180Z,18.29
2022-09-10T23:58:39.152Z,18.33
